Airfield :
LOGIN :

Register | Disclaimer

   EN    FR    IT 

 










Legend :    VFR   Marginal VFR   IFR   Intensive IFR   Very Intensive IFR
Visi :
Ceiling :
>= 8 km
>= 3000ft
5 to 8 km
1000 to 3000 ft
1500m to 5 km
500 to 1000 ft
800 to 1500m
200 to 500 ft
< 800m
< 200 ft
Symbols :   Thunderstorms  Fog  Heavy snow  Heavy precipitations  Wind > 20 kt
SIGMETs :     Misc.  Thunderstorms  Icing  Turbulence  Mountain Waves  Volcanic Ashes






- Airport Elevation : 400 ft
- IATA code : BNX


LQBK - Banja Luka

CURRENT METAR :
  • 141400Z 33003KT 290V360 9999 BKN013 OVC023 10/08 Q1010 NOSIG

EXPIRED METARs :
  • 141330Z 34004KT 300V360 9999 BKN013 OVC017 10/08 Q1011 NOSIG
  • 141230Z 34005KT 9999 BKN010 OVC015 09/08 Q1011 NOSIG
  • 141200Z 33005KT 9999 BKN008 OVC015 09/08 Q1011 NOSIG
  • 141130Z 32005KT 9999 BKN007 OVC015 09/08 Q1011 NOSIG

TAF TAF LQBK
Valid from the 14 at 12:00 until the 15 at 12:00 UTC


141100Z 1412/1512 06005KT 9999 SCT008 BKN020 TX13/1512Z TN06/1502Z
BECMG 1416/1418 3000 BR BKN007
PROB40
TEMPO 1421/1507 0200 FG VV002
BECMG 1508/1510 9999 NSW SCT035



MET'MAP, your aeronautical weather chart ! - Copyright ORBIFLY December 2007 - Disclaimer

ORBIFLY MET'MAP TEAM :

Programming & Development : Alexandra Zaïnal
Concept & Development : Baudouin d'Aumeries
Co-Development & Prog : Marc-Olivier Méhu
Technical & hardware support : Manuel Goepfert

Contact : metmap@orbifly.com




SOURCES & CREDITS :

   NOAA